Time;durP1;ratioP1;P1;durP2;ratioP2;P2;SDS_P1;SDS_P2;PMS_P1;PMS_P2;Temp;Humidity;BMP_temperature;BMP_pressure;BME280_temperature;BME280_humidity;BME280_pressure;Samples;Min_cycle;Max_cycle;Signal;HPM_P1;HPM_P2
2022/04/25 04:00:24;;;;;;;54.13;39.27;;;10.30;99.90;;;;;;6013659;23;20389;-74
2022/04/25 04:02:51;;;;;;;53.90;37.07;;;10.30;99.90;;;;;;4989819;28;20856;-74
2022/04/25 04:05:18;;;;;;;54.23;37.47;;;10.30;99.90;;;;;;4989060;28;20460;-74
2022/04/25 04:07:45;;;;;;;57.07;37.17;;;10.30;99.90;;;;;;4988647;28;20459;-75
2022/04/25 04:10:12;;;;;;;53.63;36.53;;;10.30;99.90;;;;;;4988742;28;20547;-75
2022/04/25 04:12:39;;;;;;;58.20;38.93;;;10.30;99.90;;;;;;4969425;28;20496;-75
2022/04/25 04:15:07;;;;;;;51.03;36.50;;;10.30;99.90;;;;;;4969577;28;20445;-75
2022/04/25 04:17:36;;;;;;;53.77;36.37;;;10.40;99.90;;;;;;4969507;28;20823;-75
2022/04/25 04:20:04;;;;;;;53.67;37.43;;;10.40;99.90;;;;;;4969337;28;20571;-74
2022/04/25 04:22:32;;;;;;;53.87;36.33;;;10.40;99.90;;;;;;4969123;28;20472;-74
2022/04/25 04:25:03;;;;;;;55.23;37.90;;;10.40;99.90;;;;;;4969608;28;20627;-76
2022/04/25 04:27:31;;;;;;;47.73;34.23;;;10.40;99.90;;;;;;4969432;28;20452;-75
2022/04/25 04:29:58;;;;;;;53.90;37.47;;;10.40;99.90;;;;;;4969240;28;20465;-75
2022/04/25 04:32:30;;;;;;;52.43;37.90;;;10.40;99.90;;;;;;4969380;28;20504;-75
2022/04/25 04:34:58;;;;;;;57.90;40.10;;;10.40;99.90;;;;;;4969309;28;20523;-75
2022/04/25 04:37:25;;;;;;;56.53;37.87;;;10.40;99.90;;;;;;4968648;28;20456;-74
2022/04/25 04:40:28;;;;;;;49.40;35.30;;;10.50;99.90;;;;;;4969589;28;20463;-74
2022/04/25 04:42:41;;;;;;;51.87;37.07;;;10.50;99.90;;;;;;4968969;28;20945;-74
2022/04/25 04:45:09;;;;;;;51.53;36.40;;;10.40;99.90;;;;;;4968920;28;21020;-74
2022/04/25 04:47:35;;;;;;;51.97;34.37;;;10.50;99.90;;;;;;4968201;28;20457;-74
2022/04/25 04:50:04;;;;;;;50.00;35.40;;;10.40;99.90;;;;;;4969815;28;20543;-75
2022/04/25 04:52:31;;;;;;;48.73;35.43;;;10.40;99.90;;;;;;4970259;28;20528;-75
2022/04/25 04:54:58;;;;;;;51.90;35.60;;;10.30;99.90;;;;;;4970321;28;20465;-74
2022/04/25 04:57:25;;;;;;;55.77;37.57;;;10.30;99.90;;;;;;4969562;28;20862;-74
2022/04/25 04:59:52;;;;;;;52.17;37.63;;;10.30;99.90;;;;;;4970367;28;20457;-74
2022/04/25 05:02:19;;;;;;;55.80;38.23;;;10.30;99.90;;;;;;4966740;28;20488;-73
2022/04/25 05:04:46;;;;;;;56.97;38.40;;;10.20;99.90;;;;;;4967315;28;20830;-73
2022/04/25 05:07:14;;;;;;;64.23;41.30;;;10.20;99.90;;;;;;4966225;28;20459;-73
2022/04/25 05:09:41;;;;;;;58.90;40.47;;;10.30;99.90;;;;;;4966993;28;20479;-73
2022/04/25 05:12:09;;;;;;;64.70;41.60;;;10.20;99.90;;;;;;4967038;28;20591;-73
2022/04/25 05:14:35;;;;;;;63.13;40.80;;;10.20;99.90;;;;;;4967120;28;20543;-73
2022/04/25 05:17:02;;;;;;;70.87;45.63;;;10.10;99.90;;;;;;4966441;28;20822;-73
2022/04/25 05:19:29;;;;;;;66.87;43.10;;;10.10;99.90;;;;;;4966939;28;20463;-73
2022/04/25 05:21:56;;;;;;;69.43;43.50;;;10.00;99.90;;;;;;4966643;28;20476;-73
2022/04/25 05:24:24;;;;;;;72.87;45.20;;;9.90;99.90;;;;;;4967153;28;20479;-72
2022/04/25 05:26:51;;;;;;;73.80;46.30;;;9.90;99.90;;;;;;4966336;28;20551;-73
2022/04/25 05:29:18;;;;;;;81.67;46.03;;;9.90;99.90;;;;;;4966808;28;20456;-73
2022/04/25 05:31:45;;;;;;;82.80;49.00;;;9.90;99.90;;;;;;4966651;28;20527;-74
2022/04/25 05:34:14;;;;;;;74.80;46.53;;;9.90;99.90;;;;;;4966970;28;20471;-73
2022/04/25 05:36:41;;;;;;;81.77;48.10;;;10.00;99.90;;;;;;4965798;28;20515;-73
2022/04/25 05:39:08;;;;;;;75.93;47.60;;;10.00;99.90;;;;;;4966630;28;20511;-74
2022/04/25 05:41:37;;;;;;;74.47;45.67;;;9.90;99.90;;;;;;4966662;28;20567;-74
2022/04/25 05:44:04;;;;;;;79.50;51.23;;;9.90;99.90;;;;;;4966959;28;20449;-73
2022/04/25 05:46:33;;;;;;;84.00;49.63;;;9.90;99.90;;;;;;4966098;28;20461;-73
2022/04/25 05:52:02;;;;;;;74.03;46.60;;;10.00;99.90;;;;;;4945756;28;20468;-73
2022/04/25 05:54:30;;;;;;;80.53;48.43;;;9.90;99.90;;;;;;4966517;28;20456;-73
2022/04/25 05:56:58;;;;;;;76.87;48.53;;;9.90;99.90;;;;;;4966309;28;20456;-72
2022/04/25 05:59:25;;;;;;;76.30;48.03;;;10.00;99.90;;;;;;4966421;28;20878;-72
2022/04/25 06:01:53;;;;;;;71.83;45.10;;;9.90;99.90;;;;;;4966527;28;20488;-73
2022/04/25 06:04:21;;;;;;;79.67;46.73;;;9.90;99.90;;;;;;4966580;28;20956;-74
2022/04/25 06:06:48;;;;;;;70.60;44.43;;;9.90;99.90;;;;;;4966277;28;20456;-73
2022/04/25 06:09:15;;;;;;;70.50;46.07;;;9.90;99.90;;;;;;4968615;28;20459;-73
2022/04/25 06:11:42;;;;;;;71.67;46.47;;;9.90;99.90;;;;;;4970623;28;20472;-73
2022/04/25 06:14:10;;;;;;;67.90;44.93;;;9.90;99.90;;;;;;4970446;28;20466;-73
2022/04/25 06:16:37;;;;;;;69.30;44.63;;;9.90;99.90;;;;;;4969912;28;20463;-73
2022/04/25 06:19:04;;;;;;;61.13;41.97;;;9.90;99.90;;;;;;4970111;28;20448;-73
2022/04/25 06:21:31;;;;;;;60.63;41.50;;;9.90;99.90;;;;;;4969644;28;20474;-72
2022/04/25 06:24:00;;;;;;;64.87;44.20;;;10.00;99.90;;;;;;4970269;28;20452;-73
2022/04/25 06:26:27;;;;;;;64.90;41.10;;;10.00;99.90;;;;;;4969466;28;20828;-74
2022/04/25 06:28:54;;;;;;;59.33;40.07;;;10.00;99.90;;;;;;4969927;28;20503;-73
2022/04/25 06:31:23;;;;;;;59.00;40.70;;;10.10;99.90;;;;;;4967000;28;20506;-73
2022/04/25 06:33:50;;;;;;;60.23;40.23;;;10.10;99.90;;;;;;4950664;29;20496;-73
2022/04/25 06:36:17;;;;;;;60.37;39.37;;;10.10;99.90;;;;;;4949718;29;20468;-72
2022/04/25 06:38:44;;;;;;;60.80;39.50;;;10.10;99.90;;;;;;4952677;28;20518;-72
2022/04/25 06:41:12;;;;;;;58.60;40.30;;;10.20;99.90;;;;;;4951687;29;20469;-72
2022/04/25 06:43:39;;;;;;;62.20;41.90;;;10.20;99.90;;;;;;4951960;29;21014;-70
2022/04/25 06:46:06;;;;;;;60.47;40.10;;;10.20;99.90;;;;;;4950441;29;20988;-70
2022/04/25 06:48:34;;;;;;;55.13;39.03;;;10.20;99.90;;;;;;4949714;29;20492;-71
2022/04/25 06:51:01;;;;;;;52.40;36.20;;;10.20;99.90;;;;;;4950377;29;21049;-73
2022/04/25 06:53:28;;;;;;;57.30;39.73;;;10.20;99.90;;;;;;4950096;29;20985;-73
2022/04/25 06:55:55;;;;;;;50.67;37.03;;;10.20;99.90;;;;;;4950239;29;20541;-73
2022/04/25 06:58:22;;;;;;;44.33;32.23;;;10.30;99.90;;;;;;4948591;29;20488;-73
2022/04/25 07:00:49;;;;;;;51.33;35.73;;;10.30;99.90;;;;;;4950056;29;20585;-73
2022/04/25 07:03:16;;;;;;;50.60;37.27;;;10.40;99.90;;;;;;4949837;29;20461;-73
2022/04/25 07:05:45;;;;;;;53.73;37.60;;;10.40;99.90;;;;;;4949844;28;20461;-73
2022/04/25 07:08:11;;;;;;;54.97;37.40;;;10.40;99.90;;;;;;4948969;29;20729;-73
2022/04/25 07:10:39;;;;;;;50.40;36.50;;;10.40;99.90;;;;;;4949781;28;20841;-73
2022/04/25 07:13:06;;;;;;;46.70;34.33;;;10.40;99.90;;;;;;4949490;29;20796;-73
2022/04/25 07:15:33;;;;;;;53.53;36.20;;;10.30;99.90;;;;;;4949352;29;20463;-73
2022/04/25 07:18:00;;;;;;;49.37;37.33;;;10.30;99.90;;;;;;4948915;29;20453;-72
2022/04/25 07:20:27;;;;;;;55.53;37.87;;;10.40;99.90;;;;;;4949429;28;20465;-73
2022/04/25 07:31:08;;;;;;;51.57;37.33;;;10.70;99.90;;;;;;4949433;29;20488;-73
2022/04/25 07:33:36;;;;;;;48.47;34.90;;;10.70;99.90;;;;;;4949706;29;20503;-73
2022/04/25 07:36:04;;;;;;;45.93;33.47;;;10.70;99.90;;;;;;4947575;29;20462;-73
2022/04/25 07:38:33;;;;;;;42.20;30.70;;;10.80;99.90;;;;;;4947350;29;20493;-73
2022/04/25 07:41:00;;;;;;;42.10;32.50;;;10.70;99.90;;;;;;4949080;29;20560;-73
2022/04/25 07:43:29;;;;;;;42.27;30.80;;;10.70;99.90;;;;;;4948983;29;20446;-73
2022/04/25 07:45:56;;;;;;;42.37;31.23;;;10.70;99.90;;;;;;4948632;29;21337;-73
2022/04/25 07:48:23;;;;;;;41.80;32.27;;;10.70;99.90;;;;;;4948565;29;20537;-73
2022/04/25 07:50:50;;;;;;;41.30;32.50;;;10.70;99.90;;;;;;4949136;29;20572;-73
2022/04/25 07:53:16;;;;;;;42.80;32.77;;;10.70;99.90;;;;;;4948384;28;20587;-73
2022/04/25 07:55:45;;;;;;;42.73;32.40;;;10.80;99.90;;;;;;4948885;29;20467;-73
2022/04/25 07:58:12;;;;;;;37.80;29.27;;;10.90;99.90;;;;;;4948539;29;20558;-73
2022/04/25 08:00:40;;;;;;;41.37;31.40;;;10.90;99.90;;;;;;4948848;29;20485;-73
2022/04/25 08:03:08;;;;;;;40.00;30.10;;;11.00;99.90;;;;;;4948666;29;20493;-73
2022/04/25 08:05:35;;;;;;;37.10;28.87;;;11.00;99.90;;;;;;4948220;29;20472;-73
2022/04/25 08:08:02;;;;;;;33.80;26.00;;;11.00;99.90;;;;;;4948069;29;20457;-73
2022/04/25 08:10:29;;;;;;;37.67;28.20;;;11.10;99.90;;;;;;4948496;29;21012;-73
2022/04/25 08:18:25;;;;;;;30.10;24.90;;;11.30;99.90;;;;;;4947939;29;20468;-73
2022/04/25 08:20:53;;;;;;;24.17;20.80;;;11.40;99.90;;;;;;4948545;29;20488;-73
2022/04/25 08:23:21;;;;;;;24.97;20.87;;;11.30;99.90;;;;;;4948305;29;20513;-73
2022/04/25 08:25:47;;;;;;;29.00;22.80;;;11.30;99.90;;;;;;4948515;29;20895;-73
2022/04/25 08:28:16;;;;;;;30.87;23.20;;;11.30;99.90;;;;;;4947863;29;20477;-73
2022/04/25 08:30:43;;;;;;;31.87;25.73;;;11.40;99.90;;;;;;4948281;28;20998;-73
2022/04/25 08:33:11;;;;;;;30.03;23.13;;;11.50;99.90;;;;;;4947433;29;20501;-73
2022/04/25 08:35:38;;;;;;;29.57;23.20;;;11.60;99.90;;;;;;4947982;28;20840;-73
2022/04/25 08:38:05;;;;;;;26.47;22.20;;;11.60;99.90;;;;;;4947459;29;20950;-73
2022/04/25 08:40:33;;;;;;;23.90;21.30;;;11.70;99.90;;;;;;4948458;29;20965;-73
2022/04/25 08:43:03;;;;;;;24.57;20.20;;;11.70;99.90;;;;;;4947552;29;20552;-73
2022/04/25 08:45:32;;;;;;;24.07;19.77;;;12.00;99.90;;;;;;4948401;29;20465;-73
2022/04/25 08:48:00;;;;;;;29.50;24.70;;;12.00;99.90;;;;;;4947406;29;20445;-73
2022/04/25 08:50:28;;;;;;;26.13;21.33;;;12.20;99.90;;;;;;4947550;29;20969;-73
2022/04/25 08:52:57;;;;;;;25.20;20.07;;;12.20;99.90;;;;;;4947806;29;21433;-73
2022/04/25 08:55:26;;;;;;;23.87;19.37;;;12.20;99.90;;;;;;4948054;28;20465;-72
2022/04/25 08:57:55;;;;;;;22.47;19.60;;;12.20;99.90;;;;;;4947661;29;20462;-73
2022/04/25 09:00:22;;;;;;;24.10;18.30;;;12.20;99.90;;;;;;4948098;29;20449;-73
2022/04/25 09:02:50;;;;;;;23.10;19.87;;;12.30;99.90;;;;;;4948412;29;20452;-73
2022/04/25 09:05:17;;;;;;;22.63;19.53;;;12.80;99.90;;;;;;4947848;29;20457;-73
2022/04/25 09:07:45;;;;;;;19.97;17.77;;;13.10;99.90;;;;;;4947318;28;20465;-72
2022/04/25 09:10:15;;;;;;;16.73;14.93;;;13.20;99.90;;;;;;4947397;29;20920;-72
2022/04/25 09:12:45;;;;;;;18.50;16.00;;;13.10;99.90;;;;;;4947955;28;20997;-71
2022/04/25 09:15:12;;;;;;;17.23;15.33;;;13.20;99.90;;;;;;4948030;29;20461;-72
2022/04/25 09:17:39;;;;;;;18.97;16.00;;;13.20;99.90;;;;;;4947415;28;20547;-72
2022/04/25 09:20:10;;;;;;;16.70;14.90;;;13.60;99.90;;;;;;4947642;28;20478;-72
2022/04/25 09:22:39;;;;;;;22.27;17.97;;;14.10;99.90;;;;;;4947723;29;20499;-72
2022/04/25 09:25:08;;;;;;;16.27;14.43;;;14.60;99.90;;;;;;4948119;29;20906;-74
2022/04/25 09:27:36;;;;;;;14.23;12.73;;;15.20;99.90;;;;;;4947221;29;20464;-73
2022/04/25 09:30:14;;;;;;;14.53;13.03;;;15.40;99.90;;;;;;4947574;28;20458;-73
2022/04/25 09:32:42;;;;;;;13.33;11.97;;;15.40;99.90;;;;;;4947170;28;20981;-73
2022/04/25 09:35:33;;;;;;;14.53;13.03;;;15.40;99.90;;;;;;4947615;28;20484;-72
2022/04/25 09:38:03;;;;;;;15.83;14.23;;;15.50;99.90;;;;;;4946843;29;20866;-73
2022/04/25 09:40:32;;;;;;;12.93;11.63;;;15.70;99.90;;;;;;4947495;28;20465;-73
2022/04/25 09:43:08;;;;;;;12.13;10.93;;;15.70;99.90;;;;;;4946961;28;20467;-73
2022/04/25 09:45:37;;;;;;;13.33;11.93;;;15.80;99.90;;;;;;4947467;28;20544;-73
2022/04/25 09:48:10;;;;;;;11.60;10.17;;;15.80;99.90;;;;;;4947050;29;20516;-72
2022/04/25 09:50:39;;;;;;;12.83;11.40;;;16.10;99.90;;;;;;4947278;29;20477;-73
2022/04/25 09:53:08;;;;;;;12.47;10.63;;;16.50;99.90;;;;;;4946942;29;20501;-73
2022/04/25 09:55:37;;;;;;;10.30;9.20;;;17.20;99.90;;;;;;4947195;29;20899;-73
2022/04/25 09:58:18;;;;;;;11.63;10.00;;;16.90;99.90;;;;;;4946404;28;20471;-72
2022/04/25 10:00:46;;;;;;;11.90;10.70;;;17.20;99.90;;;;;;4946815;29;20540;-73
2022/04/25 10:03:16;;;;;;;10.00;9.00;;;17.30;99.90;;;;;;4947478;29;20497;-73
2022/04/25 10:05:46;;;;;;;9.37;8.47;;;17.40;99.90;;;;;;4946997;28;20457;-73
2022/04/25 10:08:14;;;;;;;10.10;9.10;;;17.50;99.90;;;;;;4946566;28;20457;-73
2022/04/25 10:10:46;;;;;;;11.03;10.00;;;17.30;99.90;;;;;;4947258;28;20643;-73
2022/04/25 10:13:13;;;;;;;12.20;10.10;;;17.20;99.90;;;;;;4947269;29;20485;-73
2022/04/25 10:15:41;;;;;;;10.93;9.83;;;17.00;99.90;;;;;;4947181;29;20500;-73
2022/04/25 10:18:09;;;;;;;12.83;11.47;;;16.90;99.90;;;;;;4946439;28;20469;-73
2022/04/25 10:20:37;;;;;;;11.80;10.43;;;16.70;99.90;;;;;;4946512;29;20508;-73
2022/04/25 10:23:07;;;;;;;11.10;10.00;;;16.70;99.90;;;;;;4946909;29;20525;-73
2022/04/25 10:25:36;;;;;;;12.63;11.33;;;16.80;99.90;;;;;;4946969;29;20962;-73
2022/04/25 10:28:06;;;;;;;11.73;10.60;;;16.70;99.90;;;;;;4946592;28;20465;-73
2022/04/25 10:30:34;;;;;;;12.80;11.50;;;16.50;99.90;;;;;;4947146;29;20481;-74
2022/04/25 10:33:16;;;;;;;14.10;12.50;;;16.30;99.90;;;;;;4946797;28;20461;-73
2022/04/25 10:35:44;;;;;;;10.80;9.70;;;16.50;99.90;;;;;;4947305;29;20461;-73
2022/04/25 10:38:50;;;;;;;9.70;8.70;;;16.90;99.90;;;;;;4946682;28;20449;-74
2022/04/25 10:44:26;;;;;;;12.40;10.80;;;16.50;99.90;;;;;;4947272;29;21272;-74
2022/04/25 10:47:12;;;;;;;11.77;10.17;;;16.30;99.90;;;;;;4937846;28;20461;-73
2022/04/25 10:49:42;;;;;;;11.23;10.10;;;16.10;99.90;;;;;;4946518;28;20961;-73
2022/04/25 10:52:43;;;;;;;12.17;10.97;;;16.40;99.90;;;;;;4946234;29;20483;-74
2022/04/25 10:55:19;;;;;;;10.93;9.83;;;16.60;99.90;;;;;;4948021;28;20540;-73
2022/04/25 10:58:17;;;;;;;12.30;10.97;;;16.90;99.90;;;;;;4949448;28;20492;-73
2022/04/25 11:00:49;;;;;;;11.30;10.10;;;17.40;99.90;;;;;;4927278;28;21056;-73
2022/04/25 11:03:18;;;;;;;11.30;10.20;;;17.50;99.90;;;;;;4950330;29;20497;-73
2022/04/25 11:05:48;;;;;;;10.40;9.30;;;17.50;99.90;;;;;;4950070;29;20484;-73
2022/04/25 11:08:34;;;;;;;11.33;10.10;;;17.70;99.90;;;;;;4949512;28;20469;-73
2022/04/25 11:11:20;;;;;;;10.50;9.40;;;17.60;99.90;;;;;;4949813;29;20492;-73
2022/04/25 11:14:23;;;;;;;10.17;9.17;;;17.30;99.90;;;;;;4949855;28;20492;-73
2022/04/25 11:17:13;;;;;;;10.37;9.30;;;16.90;99.90;;;;;;4949144;28;20568;-74
2022/04/25 11:19:51;;;;;;;10.30;9.33;;;16.70;99.90;;;;;;4950038;28;20449;-74
2022/04/25 11:22:39;;;;;;;10.83;9.77;;;16.60;99.90;;;;;;4949311;28;20867;-74
2022/04/25 11:25:41;;;;;;;11.97;8.70;;;16.50;99.90;;;;;;4950045;28;20442;-73
2022/04/25 11:28:11;;;;;;;9.70;8.70;;;16.50;99.90;;;;;;4949152;28;20465;-74
2022/04/25 11:30:39;;;;;;;10.27;9.27;;;16.70;99.90;;;;;;4949515;28;20477;-74
2022/04/25 11:33:08;;;;;;;10.90;9.80;;;16.80;99.90;;;;;;4949696;28;20476;-73
2022/04/25 11:35:35;;;;;;;12.57;11.37;;;16.80;99.90;;;;;;4948424;28;20591;-74
2022/04/25 11:38:03;;;;;;;13.57;10.47;;;17.00;99.90;;;;;;4947614;29;20457;-74
2022/04/25 11:40:30;;;;;;;12.83;11.50;;;17.00;99.90;;;;;;4948808;29;20545;-74
2022/04/25 11:42:59;;;;;;;12.50;11.23;;;16.90;99.90;;;;;;4948646;29;20497;-73
2022/04/25 11:45:28;;;;;;;12.70;11.33;;;16.60;99.90;;;;;;4948600;29;20516;-74
2022/04/25 11:47:56;;;;;;;12.60;11.20;;;16.50;99.90;;;;;;4947846;29;20457;-73
2022/04/25 11:50:23;;;;;;;10.83;9.73;;;16.40;99.90;;;;;;4947924;29;20481;-73
2022/04/25 11:52:52;;;;;;;10.73;9.70;;;16.30;99.90;;;;;;4948220;28;20989;-73
2022/04/25 11:55:31;;;;;;;11.33;10.20;;;16.10;99.90;;;;;;4948479;28;20588;-73
2022/04/25 11:57:58;;;;;;;13.00;8.80;;;16.00;99.90;;;;;;4947287;29;20449;-73
2022/04/25 12:00:26;;;;;;;12.37;10.87;;;15.80;99.90;;;;;;4948031;28;20520;-73
2022/04/25 12:02:54;;;;;;;11.87;10.67;;;15.70;99.90;;;;;;4947947;29;20450;-73
2022/04/25 12:05:28;;;;;;;12.40;11.10;;;15.60;99.90;;;;;;4948034;28;20930;-73
2022/04/25 12:16:10;;;;;;;15.43;12.40;;;15.30;99.90;;;;;;4947761;29;20421;-73
2022/04/25 12:18:49;;;;;;;15.60;13.50;;;15.30;99.90;;;;;;4949871;28;20457;-73
2022/04/25 12:21:17;;;;;;;16.63;14.83;;;15.30;99.90;;;;;;4967034;28;21087;-73
2022/04/25 12:23:48;;;;;;;15.60;13.63;;;15.40;99.90;;;;;;4967091;28;20511;-73
2022/04/25 12:26:20;;;;;;;16.80;15.00;;;15.40;99.90;;;;;;4966881;28;20472;-73
2022/04/25 12:28:52;;;;;;;15.60;14.00;;;15.50;99.90;;;;;;4966456;28;20456;-73
2022/04/25 12:31:20;;;;;;;15.50;13.90;;;15.50;99.90;;;;;;4967609;28;20579;-73
2022/04/25 12:33:50;;;;;;;18.00;15.03;;;15.40;99.90;;;;;;4967642;28;20457;-73
2022/04/25 12:36:19;;;;;;;21.90;16.50;;;15.30;99.90;;;;;;4966757;28;20486;-73
2022/04/25 12:38:53;;;;;;;16.57;14.63;;;15.20;99.90;;;;;;4968328;28;20515;-73
2022/04/25 12:41:22;;;;;;;18.13;14.80;;;15.20;99.90;;;;;;4966893;28;20508;-73
2022/04/25 12:43:52;;;;;;;16.67;14.90;;;15.20;99.90;;;;;;4967432;28;20452;-74
2022/04/25 12:46:39;;;;;;;17.60;15.53;;;15.20;99.90;;;;;;4966966;28;20953;-74
2022/04/25 12:49:08;;;;;;;17.30;15.40;;;15.10;99.90;;;;;;4967513;28;20468;-75
2022/04/25 12:51:40;;;;;;;16.97;14.43;;;15.10;99.90;;;;;;4967169;28;20478;-74
2022/04/25 12:54:20;;;;;;;16.63;14.87;;;15.00;99.90;;;;;;4967441;28;20579;-73
2022/04/25 12:56:48;;;;;;;17.10;14.33;;;15.00;99.90;;;;;;4967131;28;20424;-73
2022/04/25 12:59:24;;;;;;;16.53;14.80;;;14.90;99.90;;;;;;4966948;28;20511;-73
2022/04/25 13:02:02;;;;;;;20.13;16.20;;;14.90;99.90;;;;;;4966689;28;20921;-73
2022/04/25 13:04:29;;;;;;;20.63;15.70;;;14.90;99.90;;;;;;4967356;28;20535;-73
2022/04/25 13:06:57;;;;;;;16.47;14.73;;;14.80;99.90;;;;;;4966409;28;21112;-73
2022/04/25 13:09:23;;;;;;;17.87;14.20;;;14.70;99.90;;;;;;4967303;28;20636;-73
2022/04/25 13:11:50;;;;;;;15.63;13.67;;;14.70;99.90;;;;;;4966996;28;20592;-73
2022/04/25 13:14:17;;;;;;;18.07;15.60;;;14.70;99.90;;;;;;4967115;28;20651;-73
2022/04/25 13:16:44;;;;;;;16.97;14.60;;;14.50;99.90;;;;;;4966681;28;20499;-74
2022/04/25 13:19:12;;;;;;;18.03;15.30;;;14.60;99.90;;;;;;4966499;28;20469;-73
2022/04/25 13:21:42;;;;;;;20.63;15.37;;;14.70;99.90;;;;;;4967135;28;20516;-73
2022/04/25 13:24:09;;;;;;;17.07;15.23;;;14.70;99.90;;;;;;4966897;28;21044;-73
2022/04/25 13:26:36;;;;;;;17.73;15.37;;;14.70;99.90;;;;;;4966197;28;20614;-73
2022/04/25 13:29:03;;;;;;;17.50;15.10;;;14.70;99.90;;;;;;4967137;28;20471;-73
2022/04/25 13:31:31;;;;;;;15.37;13.77;;;14.60;99.90;;;;;;4966447;28;20479;-73
2022/04/25 13:33:59;;;;;;;16.80;15.00;;;14.60;99.90;;;;;;4966610;28;20543;-73
2022/04/25 13:36:27;;;;;;;19.60;15.47;;;14.60;99.90;;;;;;4966042;28;20988;-73
2022/04/25 13:38:54;;;;;;;20.27;15.23;;;14.60;99.90;;;;;;4966279;28;20562;-73
2022/04/25 13:41:21;;;;;;;17.60;15.00;;;14.60;99.90;;;;;;4966759;28;20484;-73
2022/04/25 13:43:49;;;;;;;16.03;14.37;;;14.60;99.90;;;;;;4967222;28;20457;-74
2022/04/25 13:46:17;;;;;;;17.57;15.73;;;14.60;99.90;;;;;;4957226;28;20977;-74
2022/04/25 13:48:44;;;;;;;15.30;13.80;;;14.60;99.90;;;;;;4963632;28;20461;-74
2022/04/25 13:51:11;;;;;;;15.00;13.37;;;14.60;99.90;;;;;;4966029;28;20476;-73
2022/04/25 13:53:39;;;;;;;16.20;14.40;;;14.60;99.90;;;;;;4965687;28;20471;-73
2022/04/25 13:56:07;;;;;;;15.93;14.07;;;14.60;99.90;;;;;;4966398;28;20491;-74
2022/04/25 13:58:36;;;;;;;17.47;13.57;;;14.70;99.90;;;;;;4965900;28;20460;-74
2022/04/25 14:01:04;;;;;;;15.27;12.97;;;14.80;99.90;;;;;;4966277;28;20484;-74
2022/04/25 14:03:31;;;;;;;14.67;13.17;;;14.70;99.90;;;;;;4966701;28;20464;-74
2022/04/25 14:05:58;;;;;;;16.90;15.10;;;14.70;99.90;;;;;;4966798;28;20880;-74
2022/04/25 14:08:25;;;;;;;15.73;13.70;;;14.80;99.90;;;;;;4965935;28;20460;-73
2022/04/25 14:10:54;;;;;;;19.33;15.10;;;15.00;99.90;;;;;;4952294;28;20478;-74
2022/04/25 14:13:21;;;;;;;15.53;13.87;;;15.20;99.90;;;;;;4947284;28;20468;-74
2022/04/25 14:15:49;;;;;;;16.23;14.53;;;15.30;99.90;;;;;;4947814;29;20874;-74
2022/04/25 14:18:17;;;;;;;14.97;13.47;;;15.40;99.90;;;;;;4946878;29;20863;-74
2022/04/25 14:20:43;;;;;;;14.17;12.70;;;15.40;99.90;;;;;;4946747;29;21341;-74
2022/04/25 14:23:11;;;;;;;13.80;12.13;;;15.50;99.90;;;;;;4949961;28;20545;-74
2022/04/25 14:25:40;;;;;;;13.90;12.40;;;15.50;99.90;;;;;;4947496;29;20461;-74
2022/04/25 14:28:08;;;;;;;11.97;10.70;;;15.60;99.90;;;;;;4945284;29;20457;-75
2022/04/25 14:30:35;;;;;;;12.87;11.57;;;15.70;99.90;;;;;;4948232;28;20478;-74
2022/04/25 14:33:02;;;;;;;12.50;11.20;;;15.80;99.90;;;;;;4950576;29;20544;-74
2022/04/25 14:35:29;;;;;;;14.77;11.33;;;16.00;99.90;;;;;;4957665;28;20583;-75
2022/04/25 14:37:56;;;;;;;12.30;10.70;;;16.10;99.90;;;;;;4969509;28;20466;-75
2022/04/25 14:40:23;;;;;;;12.90;11.60;;;16.00;99.90;;;;;;4970274;28;20476;-76
2022/04/25 14:42:50;;;;;;;12.03;10.83;;;15.90;99.90;;;;;;4970474;28;20507;-74
2022/04/25 14:45:19;;;;;;;10.60;9.60;;;15.70;99.90;;;;;;4970171;28;20503;-73
2022/04/25 14:47:47;;;;;;;10.07;9.13;;;15.80;99.90;;;;;;4970177;28;20555;-75
2022/04/25 14:55:44;;;;;;;11.30;9.27;;;16.20;99.90;;;;;;4970560;28;20479;-74
2022/04/25 14:58:12;;;;;;;9.77;8.77;;;16.30;99.90;;;;;;4970049;28;20449;-74
2022/04/25 15:00:42;;;;;;;10.70;9.40;;;16.40;99.90;;;;;;4971309;28;20488;-75
2022/04/25 15:03:09;;;;;;;10.63;9.53;;;16.30;99.90;;;;;;4969445;28;20467;-75
2022/04/25 15:05:39;;;;;;;9.07;8.17;;;16.40;99.90;;;;;;4970434;28;20455;-74
2022/04/25 15:08:08;;;;;;;9.40;8.20;;;16.40;99.90;;;;;;4967569;28;20976;-76
2022/04/25 15:10:36;;;;;;;9.00;8.07;;;16.60;99.90;;;;;;4959821;28;20491;-76
2022/04/25 15:13:02;;;;;;;8.70;7.83;;;16.70;99.90;;;;;;4969360;28;20466;-75
2022/04/25 15:15:29;;;;;;;7.57;6.87;;;16.90;99.90;;;;;;4969547;28;20500;-76
2022/04/25 15:17:57;;;;;;;10.23;9.23;;;17.00;99.90;;;;;;4969355;28;20461;-72
2022/04/25 15:20:25;;;;;;;7.63;6.93;;;17.10;99.90;;;;;;4984872;28;20506;-73
2022/04/25 15:22:51;;;;;;;8.70;7.90;;;17.20;99.90;;;;;;4987071;28;20467;-72
2022/04/25 15:25:19;;;;;;;8.10;7.30;;;17.30;99.90;;;;;;4989117;28;20517;-72
2022/04/25 15:27:45;;;;;;;10.43;9.43;;;17.30;99.90;;;;;;4988126;28;20488;-72
2022/04/25 15:30:13;;;;;;;12.30;8.93;;;17.30;99.90;;;;;;4988410;28;20534;-72
2022/04/25 15:32:40;;;;;;;10.57;9.40;;;17.30;99.90;;;;;;4988495;28;20548;-75
2022/04/25 15:35:09;;;;;;;12.80;9.27;;;17.30;99.90;;;;;;4988904;28;20503;-75
2022/04/25 15:37:36;;;;;;;8.13;7.33;;;17.30;99.90;;;;;;4987770;28;20460;-76
2022/04/25 15:40:04;;;;;;;9.00;8.17;;;17.30;99.90;;;;;;4985996;28;20456;-76
2022/04/25 15:42:31;;;;;;;11.53;7.60;;;17.30;99.90;;;;;;4984636;28;20479;-76
2022/04/25 15:44:58;;;;;;;11.47;8.10;;;17.40;99.90;;;;;;4986120;28;20462;-75
2022/04/25 15:47:25;;;;;;;8.57;7.60;;;17.10;99.90;;;;;;4985933;28;20538;-75
2022/04/25 15:49:52;;;;;;;10.33;8.07;;;16.70;99.90;;;;;;4986676;28;20466;-75
2022/04/25 15:52:20;;;;;;;9.57;8.67;;;16.60;99.90;;;;;;4986308;28;20832;-74
2022/04/25 15:57:47;;;;;;;8.83;7.93;;;16.30;99.90;;;;;;4987239;28;20647;-74
2022/04/25 16:00:17;;;;;;;8.20;7.40;;;16.20;99.90;;;;;;4987704;28;20531;-74
2022/04/25 16:02:44;;;;;;;7.20;6.30;;;16.10;99.90;;;;;;4987137;28;20460;-74
2022/04/25 16:05:11;;;;;;;7.30;6.60;;;16.00;99.90;;;;;;4987735;28;20452;-75
2022/04/25 16:07:40;;;;;;;6.73;6.13;;;16.00;99.90;;;;;;4986913;28;20481;-74
2022/04/25 16:10:08;;;;;;;8.30;7.50;;;16.00;99.90;;;;;;4987113;28;20537;-74
2022/04/25 16:12:35;;;;;;;9.23;8.30;;;16.00;99.90;;;;;;4987073;28;20482;-74
2022/04/25 16:15:02;;;;;;;8.63;7.83;;;15.90;99.90;;;;;;4987019;28;20526;-76
2022/04/25 16:17:30;;;;;;;8.47;7.67;;;15.90;99.90;;;;;;4987019;28;20550;-74
2022/04/25 16:19:57;;;;;;;9.57;8.57;;;15.80;99.90;;;;;;4987511;28;20464;-74
2022/04/25 16:22:24;;;;;;;9.10;8.10;;;15.90;99.90;;;;;;4986206;28;20511;-74
2022/04/25 16:24:53;;;;;;;9.80;8.80;;;15.90;99.90;;;;;;4987356;28;20892;-75
2022/04/25 16:27:20;;;;;;;9.18;8.27;;;15.80;99.90;;;;;;4986455;28;20444;-73
2022/04/25 16:29:48;;;;;;;10.50;9.07;;;16.00;99.90;;;;;;4987602;28;20685;-73
2022/04/25 16:32:17;;;;;;;8.97;8.07;;;16.00;99.90;;;;;;4988313;28;21094;-76
2022/04/25 16:34:46;;;;;;;9.13;8.20;;;16.10;99.90;;;;;;4987689;28;20455;-75
2022/04/25 16:37:13;;;;;;;9.10;8.20;;;16.00;99.90;;;;;;4987003;28;20859;-75
2022/04/25 16:39:40;;;;;;;10.20;9.20;;;15.90;99.90;;;;;;4987319;28;21423;-75
2022/04/25 16:42:09;;;;;;;12.00;9.77;;;15.80;99.90;;;;;;4986858;28;20482;-75
2022/04/25 16:44:36;;;;;;;11.37;10.10;;;15.70;99.90;;;;;;4987629;28;20447;-75
2022/04/25 16:47:04;;;;;;;9.43;8.53;;;15.70;99.90;;;;;;4986684;28;20459;-74
2022/04/25 16:49:31;;;;;;;11.50;8.70;;;15.70;99.90;;;;;;4986527;28;21053;-75
2022/04/25 16:51:58;;;;;;;10.67;9.63;;;15.70;99.90;;;;;;4986733;28;20494;-75
2022/04/25 16:54:25;;;;;;;8.80;7.90;;;15.60;99.90;;;;;;4986819;28;20550;-76
2022/04/25 16:56:52;;;;;;;8.57;6.43;;;15.60;99.90;;;;;;4986118;28;20491;-75
2022/04/25 16:59:20;;;;;;;5.60;5.10;;;15.60;99.90;;;;;;4987156;28;20452;-75
2022/04/25 17:01:47;;;;;;;5.40;4.77;;;15.50;99.90;;;;;;4986626;28;20487;-74
2022/04/25 17:04:14;;;;;;;5.37;4.87;;;15.50;99.90;;;;;;4987068;28;20570;-75
2022/04/25 17:06:41;;;;;;;5.23;4.57;;;15.50;99.90;;;;;;4986011;28;20521;-75
2022/04/25 17:09:08;;;;;;;4.67;4.13;;;15.40;99.90;;;;;;4986647;28;20459;-75
2022/04/25 17:11:35;;;;;;;4.40;4.00;;;15.30;99.90;;;;;;4986719;28;20566;-75
2022/04/25 17:14:03;;;;;;;3.90;3.50;;;15.30;99.90;;;;;;4986731;28;20463;-75
2022/04/25 17:16:31;;;;;;;3.13;2.90;;;15.30;99.90;;;;;;4985701;28;21057;-75